Terminal Aerodrome Forecast
Issued by NWS Corpus Christi, TX

Home | Current Version | Previous Version | Text Only | Print | Product List | Glossary On
Versions: 1 2 3 4 5 6 7 8 9 10 11 12 13 14 15 16 17 18 19
106
FTUS44 KCRP 271740
TAFCRP
TAF
KCRP 271740Z 2718/2818 14014KT P6SM BKN035
     FM280100 14012KT P6SM SCT025
     FM280400 15007KT P6SM BKN015
     FM281500 15020G30KT P6SM BKN025=

USA.gov is the U.S. government's official web portal to all federal, state and local government web resources and services.